Union Mills, Indiana
Current Conditions -  °F | °C
As of 2:35 PM on Saturday 20 Dec 2014 (Local Time) from KPPO Reporting Station
Overcast Overcast  
Wind Chill: 27°   Ceiling: 7000
Heat Index: 34°   Visibility: 10mi
Dew Point: 27°   Wind: 8mph
Humidity: 74%   Direction: 250°WSW
Pressure: 30.25"   Gusts: NA
Location:  41.49°N, 86.78°W
Report Text: KPPO 202035Z AUTO 25007KT 10SM OVC070 01/M03 A3025 RMK AO2 T00121029
Loading
Personal Weather Stations






























Interactive Weather Map New forecast layout! Learn more

10-Day Weather Forecast

Advertisements
Track Severe Weather on mobile